sensor_id;sensor_type;location;lat;lon;timestamp;temperature;humidity
23987;DHT22;12514;52.140;5.602;2022-08-19T00:01:23;19.90;99.90
23987;DHT22;12514;52.140;5.602;2022-08-19T00:03:49;19.90;99.90
23987;DHT22;12514;52.140;5.602;2022-08-19T00:09:36;19.70;99.90
23987;DHT22;12514;52.140;5.602;2022-08-19T00:12:02;19.60;99.90
23987;DHT22;12514;52.140;5.602;2022-08-19T00:14:28;19.60;99.90
23987;DHT22;12514;52.140;5.602;2022-08-19T00:16:56;19.60;99.90
23987;DHT22;12514;52.140;5.602;2022-08-19T00:19:23;19.60;99.90
23987;DHT22;12514;52.140;5.602;2022-08-19T00:21:49;19.60;99.90
23987;DHT22;12514;52.140;5.602;2022-08-19T00:24:15;19.70;99.90
23987;DHT22;12514;52.140;5.602;2022-08-19T00:26:42;19.70;99.90
23987;DHT22;12514;52.140;5.602;2022-08-19T00:29:10;19.70;99.90
23987;DHT22;12514;52.140;5.602;2022-08-19T00:31:36;19.70;99.90
23987;DHT22;12514;52.140;5.602;2022-08-19T00:34:02;19.70;99.90
23987;DHT22;12514;52.140;5.602;2022-08-19T00:39:50;19.60;99.90
23987;DHT22;12514;52.140;5.602;2022-08-19T00:42:19;19.50;99.90
23987;DHT22;12514;52.140;5.602;2022-08-19T00:44:45;19.40;99.90
23987;DHT22;12514;52.140;5.602;2022-08-19T00:47:10;19.40;99.90
23987;DHT22;12514;52.140;5.602;2022-08-19T00:49:40;19.40;99.90
23987;DHT22;12514;52.140;5.602;2022-08-19T00:52:09;19.40;99.90
23987;DHT22;12514;52.140;5.602;2022-08-19T00:54:37;19.40;99.90
23987;DHT22;12514;52.140;5.602;2022-08-19T00:57:09;19.40;99.90
23987;DHT22;12514;52.140;5.602;2022-08-19T00:59:38;19.30;99.90
23987;DHT22;12514;52.140;5.602;2022-08-19T01:02:05;19.30;99.90
23987;DHT22;12514;52.140;5.602;2022-08-19T01:04:31;19.20;99.90
23987;DHT22;12514;52.140;5.602;2022-08-19T01:06:56;19.20;99.90
23987;DHT22;12514;52.140;5.602;2022-08-19T01:09:23;19.20;99.90
23987;DHT22;12514;52.140;5.602;2022-08-19T01:11:48;19.20;99.90
23987;DHT22;12514;52.140;5.602;2022-08-19T01:14:15;19.10;99.90
23987;DHT22;12514;52.140;5.602;2022-08-19T01:16:43;19.10;99.90
23987;DHT22;12514;52.140;5.602;2022-08-19T01:19:17;19.20;99.90
23987;DHT22;12514;52.140;5.602;2022-08-19T01:25:46;19.10;99.90
23987;DHT22;12514;52.140;5.602;2022-08-19T01:28:25;19.00;99.90
23987;DHT22;12514;52.140;5.602;2022-08-19T01:30:51;19.00;99.90
23987;DHT22;12514;52.140;5.602;2022-08-19T01:33:17;19.00;99.90
23987;DHT22;12514;52.140;5.602;2022-08-19T01:35:45;19.00;99.90
23987;DHT22;12514;52.140;5.602;2022-08-19T01:38:21;19.00;99.90
23987;DHT22;12514;52.140;5.602;2022-08-19T01:40:47;18.90;99.90
23987;DHT22;12514;52.140;5.602;2022-08-19T01:43:13;18.90;99.90
23987;DHT22;12514;52.140;5.602;2022-08-19T01:45:39;18.90;99.90
23987;DHT22;12514;52.140;5.602;2022-08-19T01:48:06;18.80;99.90
23987;DHT22;12514;52.140;5.602;2022-08-19T01:50:32;18.90;99.90
23987;DHT22;12514;52.140;5.602;2022-08-19T01:53:00;18.90;99.90
23987;DHT22;12514;52.140;5.602;2022-08-19T01:55:26;18.80;99.90
23987;DHT22;12514;52.140;5.602;2022-08-19T01:57:55;18.80;99.90
23987;DHT22;12514;52.140;5.602;2022-08-19T02:00:23;18.70;99.90
23987;DHT22;12514;52.140;5.602;2022-08-19T02:02:51;18.70;99.90
23987;DHT22;12514;52.140;5.602;2022-08-19T02:05:17;18.70;99.90
23987;DHT22;12514;52.140;5.602;2022-08-19T02:07:46;18.70;99.90
23987;DHT22;12514;52.140;5.602;2022-08-19T02:10:20;18.70;99.90
23987;DHT22;12514;52.140;5.602;2022-08-19T02:12:46;18.80;99.90
23987;DHT22;12514;52.140;5.602;2022-08-19T02:15:12;18.90;99.90
23987;DHT22;12514;52.140;5.602;2022-08-19T02:17:39;18.80;99.90
23987;DHT22;12514;52.140;5.602;2022-08-19T02:20:05;18.70;99.90
23987;DHT22;12514;52.140;5.602;2022-08-19T02:22:32;18.70;99.90
23987;DHT22;12514;52.140;5.602;2022-08-19T02:24:58;18.60;99.90
23987;DHT22;12514;52.140;5.602;2022-08-19T02:27:23;18.50;99.90
23987;DHT22;12514;52.140;5.602;2022-08-19T02:29:50;18.50;99.90
23987;DHT22;12514;52.140;5.602;2022-08-19T02:32:16;18.50;99.90
23987;DHT22;12514;52.140;5.602;2022-08-19T02:34:44;18.50;99.90
23987;DHT22;12514;52.140;5.602;2022-08-19T02:37:09;18.50;99.90
23987;DHT22;12514;52.140;5.602;2022-08-19T02:39:55;18.40;99.90
23987;DHT22;12514;52.140;5.602;2022-08-19T02:42:20;18.50;99.90
23987;DHT22;12514;52.140;5.602;2022-08-19T02:44:46;18.40;99.90
23987;DHT22;12514;52.140;5.602;2022-08-19T02:47:11;18.40;99.90
23987;DHT22;12514;52.140;5.602;2022-08-19T02:49:39;18.40;99.90
23987;DHT22;12514;52.140;5.602;2022-08-19T02:52:05;18.40;99.90
23987;DHT22;12514;52.140;5.602;2022-08-19T02:54:30;18.40;99.90
23987;DHT22;12514;52.140;5.602;2022-08-19T02:56:56;18.30;99.90
23987;DHT22;12514;52.140;5.602;2022-08-19T02:59:21;18.30;99.90
23987;DHT22;12514;52.140;5.602;2022-08-19T03:01:47;18.30;99.90
23987;DHT22;12514;52.140;5.602;2022-08-19T03:04:14;18.30;99.90
23987;DHT22;12514;52.140;5.602;2022-08-19T03:10:04;18.20;99.90
23987;DHT22;12514;52.140;5.602;2022-08-19T03:12:30;18.20;99.90
23987;DHT22;12514;52.140;5.602;2022-08-19T03:14:55;18.20;99.90
23987;DHT22;12514;52.140;5.602;2022-08-19T03:17:21;18.10;99.90
23987;DHT22;12514;52.140;5.602;2022-08-19T03:19:47;18.20;99.90
23987;DHT22;12514;52.140;5.602;2022-08-19T03:22:12;18.10;99.90
23987;DHT22;12514;52.140;5.602;2022-08-19T03:24:38;18.20;99.90
23987;DHT22;12514;52.140;5.602;2022-08-19T03:27:04;18.20;99.90
23987;DHT22;12514;52.140;5.602;2022-08-19T03:29:30;18.20;99.90
23987;DHT22;12514;52.140;5.602;2022-08-19T03:32:00;18.20;99.90
23987;DHT22;12514;52.140;5.602;2022-08-19T03:34:31;18.20;99.90
23987;DHT22;12514;52.140;5.602;2022-08-19T03:40:19;18.20;99.90
23987;DHT22;12514;52.140;5.602;2022-08-19T03:42:45;18.10;99.90
23987;DHT22;12514;52.140;5.602;2022-08-19T03:45:11;18.10;99.90
23987;DHT22;12514;52.140;5.602;2022-08-19T03:47:37;18.20;99.90
23987;DHT22;12514;52.140;5.602;2022-08-19T03:50:04;18.10;99.90
23987;DHT22;12514;52.140;5.602;2022-08-19T03:52:30;18.10;99.90
23987;DHT22;12514;52.140;5.602;2022-08-19T03:54:55;18.20;99.90
23987;DHT22;12514;52.140;5.602;2022-08-19T03:57:21;18.10;99.90
23987;DHT22;12514;52.140;5.602;2022-08-19T03:59:46;18.10;99.90
23987;DHT22;12514;52.140;5.602;2022-08-19T04:02:12;18.20;99.90
23987;DHT22;12514;52.140;5.602;2022-08-19T04:04:40;18.20;99.90
23987;DHT22;12514;52.140;5.602;2022-08-19T04:10:27;18.10;99.90
23987;DHT22;12514;52.140;5.602;2022-08-19T04:12:53;18.10;99.90
23987;DHT22;12514;52.140;5.602;2022-08-19T04:15:19;18.20;99.90
23987;DHT22;12514;52.140;5.602;2022-08-19T04:17:46;18.10;99.90
23987;DHT22;12514;52.140;5.602;2022-08-19T04:20:11;18.00;99.90
23987;DHT22;12514;52.140;5.602;2022-08-19T04:22:37;17.90;99.90
23987;DHT22;12514;52.140;5.602;2022-08-19T04:25:03;18.00;99.90
23987;DHT22;12514;52.140;5.602;2022-08-19T04:27:28;18.00;99.90
23987;DHT22;12514;52.140;5.602;2022-08-19T04:29:54;18.00;99.90
23987;DHT22;12514;52.140;5.602;2022-08-19T04:32:20;17.90;99.90
23987;DHT22;12514;52.140;5.602;2022-08-19T04:34:46;17.80;99.90
23987;DHT22;12514;52.140;5.602;2022-08-19T04:40:43;17.80;99.90
23987;DHT22;12514;52.140;5.602;2022-08-19T04:43:28;17.70;99.90
23987;DHT22;12514;52.140;5.602;2022-08-19T04:45:54;17.70;99.90
23987;DHT22;12514;52.140;5.602;2022-08-19T04:48:20;17.60;99.90
23987;DHT22;12514;52.140;5.602;2022-08-19T04:50:57;17.60;99.90
23987;DHT22;12514;52.140;5.602;2022-08-19T04:53:27;17.60;99.90
23987;DHT22;12514;52.140;5.602;2022-08-19T04:55:57;17.60;99.90
23987;DHT22;12514;52.140;5.602;2022-08-19T04:58:25;17.60;99.90
23987;DHT22;12514;52.140;5.602;2022-08-19T05:00:52;17.50;99.90
23987;DHT22;12514;52.140;5.602;2022-08-19T05:03:18;17.60;99.90
23987;DHT22;12514;52.140;5.602;2022-08-19T05:05:45;17.60;99.90
23987;DHT22;12514;52.140;5.602;2022-08-19T05:08:15;17.60;99.90
23987;DHT22;12514;52.140;5.602;2022-08-19T05:10:46;17.60;99.90
23987;DHT22;12514;52.140;5.602;2022-08-19T05:13:13;17.60;99.90
23987;DHT22;12514;52.140;5.602;2022-08-19T05:15:40;17.60;99.90
23987;DHT22;12514;52.140;5.602;2022-08-19T05:18:06;17.60;99.90
23987;DHT22;12514;52.140;5.602;2022-08-19T05:20:50;17.60;99.90
23987;DHT22;12514;52.140;5.602;2022-08-19T05:23:34;17.80;99.90
23987;DHT22;12514;52.140;5.602;2022-08-19T05:25:59;17.80;99.90
23987;DHT22;12514;52.140;5.602;2022-08-19T05:28:25;17.80;99.90
23987;DHT22;12514;52.140;5.602;2022-08-19T05:30:50;17.80;99.90
23987;DHT22;12514;52.140;5.602;2022-08-19T05:33:17;17.90;99.90
23987;DHT22;12514;52.140;5.602;2022-08-19T05:35:43;17.80;99.90
23987;DHT22;12514;52.140;5.602;2022-08-19T05:38:10;17.90;99.90
23987;DHT22;12514;52.140;5.602;2022-08-19T05:40:38;17.80;99.90
23987;DHT22;12514;52.140;5.602;2022-08-19T05:43:05;17.90;99.90
23987;DHT22;12514;52.140;5.602;2022-08-19T05:45:31;18.10;99.90
23987;DHT22;12514;52.140;5.602;2022-08-19T05:47:57;18.40;99.90
23987;DHT22;12514;52.140;5.602;2022-08-19T05:50:24;18.50;99.90
23987;DHT22;12514;52.140;5.602;2022-08-19T05:56:54;18.80;99.90
23987;DHT22;12514;52.140;5.602;2022-08-19T05:59:20;18.90;99.90
23987;DHT22;12514;52.140;5.602;2022-08-19T06:01:48;19.00;99.90
23987;DHT22;12514;52.140;5.602;2022-08-19T06:04:20;19.00;99.90
23987;DHT22;12514;52.140;5.602;2022-08-19T06:06:48;19.00;99.90
23987;DHT22;12514;52.140;5.602;2022-08-19T06:09:14;19.10;99.90
23987;DHT22;12514;52.140;5.602;2022-08-19T06:11:46;19.10;99.90
23987;DHT22;12514;52.140;5.602;2022-08-19T06:14:15;19.10;99.90
23987;DHT22;12514;52.140;5.602;2022-08-19T06:16:42;19.20;99.90
23987;DHT22;12514;52.140;5.602;2022-08-19T06:19:13;19.30;99.90
23987;DHT22;12514;52.140;5.602;2022-08-19T06:21:40;19.40;99.90
23987;DHT22;12514;52.140;5.602;2022-08-19T06:24:09;19.40;99.90
23987;DHT22;12514;52.140;5.602;2022-08-19T06:26:37;19.50;99.90
23987;DHT22;12514;52.140;5.602;2022-08-19T06:29:04;19.50;99.90
23987;DHT22;12514;52.140;5.602;2022-08-19T06:31:33;19.70;99.90
23987;DHT22;12514;52.140;5.602;2022-08-19T06:34:01;19.70;99.90
23987;DHT22;12514;52.140;5.602;2022-08-19T06:36:33;19.70;99.90
23987;DHT22;12514;52.140;5.602;2022-08-19T06:39:01;19.70;99.90
23987;DHT22;12514;52.140;5.602;2022-08-19T06:41:28;19.70;99.90
23987;DHT22;12514;52.140;5.602;2022-08-19T06:43:55;19.70;99.90
23987;DHT22;12514;52.140;5.602;2022-08-19T06:46:21;19.70;99.90
23987;DHT22;12514;52.140;5.602;2022-08-19T06:48:47;19.70;99.90
23987;DHT22;12514;52.140;5.602;2022-08-19T06:51:17;19.80;99.90
23987;DHT22;12514;52.140;5.602;2022-08-19T06:53:47;19.80;99.90
23987;DHT22;12514;52.140;5.602;2022-08-19T06:56:19;20.00;99.90
23987;DHT22;12514;52.140;5.602;2022-08-19T06:58:46;20.00;99.90
23987;DHT22;12514;52.140;5.602;2022-08-19T07:01:13;20.10;99.90
23987;DHT22;12514;52.140;5.602;2022-08-19T07:03:39;20.00;99.90
23987;DHT22;12514;52.140;5.602;2022-08-19T07:06:07;20.10;99.90
23987;DHT22;12514;52.140;5.602;2022-08-19T07:08:35;20.10;99.90
23987;DHT22;12514;52.140;5.602;2022-08-19T07:11:05;20.20;99.90
23987;DHT22;12514;52.140;5.602;2022-08-19T07:13:32;20.30;99.90
23987;DHT22;12514;52.140;5.602;2022-08-19T07:16:06;20.50;99.90
23987;DHT22;12514;52.140;5.602;2022-08-19T07:18:32;20.50;99.90
23987;DHT22;12514;52.140;5.602;2022-08-19T07:21:06;20.60;99.90
23987;DHT22;12514;52.140;5.602;2022-08-19T07:23:32;20.60;99.90
23987;DHT22;12514;52.140;5.602;2022-08-19T07:26:08;20.60;99.90
23987;DHT22;12514;52.140;5.602;2022-08-19T07:28:35;20.70;99.90
23987;DHT22;12514;52.140;5.602;2022-08-19T07:31:08;20.70;99.90
23987;DHT22;12514;52.140;5.602;2022-08-19T07:33:34;20.80;99.90
23987;DHT22;12514;52.140;5.602;2022-08-19T07:36:03;20.80;99.90
23987;DHT22;12514;52.140;5.602;2022-08-19T07:38:31;20.60;99.90
23987;DHT22;12514;52.140;5.602;2022-08-19T07:40:57;20.70;99.90
23987;DHT22;12514;52.140;5.602;2022-08-19T07:43:23;20.70;99.90
23987;DHT22;12514;52.140;5.602;2022-08-19T07:45:52;20.70;99.90
23987;DHT22;12514;52.140;5.602;2022-08-19T07:48:24;20.60;99.90
23987;DHT22;12514;52.140;5.602;2022-08-19T07:50:55;20.40;99.90
23987;DHT22;12514;52.140;5.602;2022-08-19T07:56:44;20.50;99.90
23987;DHT22;12514;52.140;5.602;2022-08-19T07:59:10;20.50;99.90
23987;DHT22;12514;52.140;5.602;2022-08-19T08:01:36;20.50;99.90
23987;DHT22;12514;52.140;5.602;2022-08-19T08:04:02;20.50;99.90
23987;DHT22;12514;52.140;5.602;2022-08-19T08:06:46;20.20;99.90
23987;DHT22;12514;52.140;5.602;2022-08-19T08:09:47;20.30;99.90
23987;DHT22;12514;52.140;5.602;2022-08-19T08:12:17;20.20;99.90
23987;DHT22;12514;52.140;5.602;2022-08-19T08:14:55;20.30;99.90
23987;DHT22;12514;52.140;5.602;2022-08-19T08:17:23;20.50;99.90
23987;DHT22;12514;52.140;5.602;2022-08-19T08:19:49;20.60;99.90
23987;DHT22;12514;52.140;5.602;2022-08-19T08:22:18;20.60;99.90
23987;DHT22;12514;52.140;5.602;2022-08-19T08:25:14;20.80;99.90
23987;DHT22;12514;52.140;5.602;2022-08-19T08:27:42;20.90;99.90
23987;DHT22;12514;52.140;5.602;2022-08-19T08:30:19;21.10;99.90
23987;DHT22;12514;52.140;5.602;2022-08-19T08:32:45;21.20;99.90
23987;DHT22;12514;52.140;5.602;2022-08-19T08:35:13;21.20;99.90
23987;DHT22;12514;52.140;5.602;2022-08-19T08:37:39;21.30;99.90
23987;DHT22;12514;52.140;5.602;2022-08-19T08:42:55;21.50;99.90
23987;DHT22;12514;52.140;5.602;2022-08-19T08:45:25;21.40;99.90
23987;DHT22;12514;52.140;5.602;2022-08-19T08:47:54;21.50;99.90
23987;DHT22;12514;52.140;5.602;2022-08-19T08:50:35;21.70;99.90
23987;DHT22;12514;52.140;5.602;2022-08-19T08:53:03;21.80;99.90
23987;DHT22;12514;52.140;5.602;2022-08-19T08:55:30;21.90;99.90
23987;DHT22;12514;52.140;5.602;2022-08-19T08:58:06;21.60;99.90
23987;DHT22;12514;52.140;5.602;2022-08-19T09:00:39;21.70;99.90
23987;DHT22;12514;52.140;5.602;2022-08-19T09:03:14;21.50;99.90
23987;DHT22;12514;52.140;5.602;2022-08-19T09:06:02;21.50;99.90
23987;DHT22;12514;52.140;5.602;2022-08-19T09:11:03;21.50;99.90
23987;DHT22;12514;52.140;5.602;2022-08-19T09:16:17;21.40;99.90
23987;DHT22;12514;52.140;5.602;2022-08-19T09:18:51;21.40;99.90
23987;DHT22;12514;52.140;5.602;2022-08-19T09:21:21;21.50;99.90
23987;DHT22;12514;52.140;5.602;2022-08-19T09:23:48;21.30;99.90
23987;DHT22;12514;52.140;5.602;2022-08-19T09:26:17;21.60;99.90
23987;DHT22;12514;52.140;5.602;2022-08-19T09:28:44;21.60;99.90
23987;DHT22;12514;52.140;5.602;2022-08-19T09:31:12;21.80;99.90
23987;DHT22;12514;52.140;5.602;2022-08-19T09:33:38;22.20;99.90
23987;DHT22;12514;52.140;5.602;2022-08-19T09:36:09;22.30;99.90
23987;DHT22;12514;52.140;5.602;2022-08-19T09:38:36;22.50;99.90
23987;DHT22;12514;52.140;5.602;2022-08-19T09:41:14;22.70;99.90
23987;DHT22;12514;52.140;5.602;2022-08-19T09:43:41;22.80;99.90
23987;DHT22;12514;52.140;5.602;2022-08-19T09:46:09;22.70;99.90
23987;DHT22;12514;52.140;5.602;2022-08-19T09:48:36;22.90;99.90
23987;DHT22;12514;52.140;5.602;2022-08-19T09:51:13;22.90;99.90
23987;DHT22;12514;52.140;5.602;2022-08-19T09:53:42;22.80;99.90
23987;DHT22;12514;52.140;5.602;2022-08-19T09:56:08;22.90;99.90
23987;DHT22;12514;52.140;5.602;2022-08-19T09:58:35;23.10;99.90
23987;DHT22;12514;52.140;5.602;2022-08-19T10:01:02;23.30;99.90
23987;DHT22;12514;52.140;5.602;2022-08-19T10:03:29;23.40;99.90
23987;DHT22;12514;52.140;5.602;2022-08-19T10:05:57;23.40;99.90
23987;DHT22;12514;52.140;5.602;2022-08-19T10:08:25;23.50;99.90
23987;DHT22;12514;52.140;5.602;2022-08-19T10:10:51;23.40;99.90
23987;DHT22;12514;52.140;5.602;2022-08-19T10:13:20;23.50;99.90
23987;DHT22;12514;52.140;5.602;2022-08-19T10:15:50;23.40;99.90
23987;DHT22;12514;52.140;5.602;2022-08-19T10:18:17;23.40;99.90
23987;DHT22;12514;52.140;5.602;2022-08-19T10:20:45;23.40;99.90
23987;DHT22;12514;52.140;5.602;2022-08-19T10:23:11;23.50;99.90
23987;DHT22;12514;52.140;5.602;2022-08-19T10:25:37;23.50;99.90
23987;DHT22;12514;52.140;5.602;2022-08-19T10:28:03;23.50;99.90
23987;DHT22;12514;52.140;5.602;2022-08-19T10:30:29;23.70;99.90
23987;DHT22;12514;52.140;5.602;2022-08-19T10:32:55;23.70;99.90
23987;DHT22;12514;52.140;5.602;2022-08-19T10:35:21;23.90;99.90
23987;DHT22;12514;52.140;5.602;2022-08-19T10:37:46;24.20;99.90
23987;DHT22;12514;52.140;5.602;2022-08-19T10:40:12;24.40;99.90
23987;DHT22;12514;52.140;5.602;2022-08-19T10:42:38;24.40;99.90
23987;DHT22;12514;52.140;5.602;2022-08-19T10:45:04;24.40;99.90
23987;DHT22;12514;52.140;5.602;2022-08-19T10:47:32;24.40;99.90
23987;DHT22;12514;52.140;5.602;2022-08-19T10:49:58;24.30;99.90
23987;DHT22;12514;52.140;5.602;2022-08-19T10:52:45;24.20;99.90
23987;DHT22;12514;52.140;5.602;2022-08-19T10:55:11;24.00;99.90
23987;DHT22;12514;52.140;5.602;2022-08-19T10:57:55;24.00;99.90
23987;DHT22;12514;52.140;5.602;2022-08-19T11:00:23;24.00;99.90
23987;DHT22;12514;52.140;5.602;2022-08-19T11:02:50;24.00;99.90
23987;DHT22;12514;52.140;5.602;2022-08-19T11:05:16;24.00;99.90
23987;DHT22;12514;52.140;5.602;2022-08-19T11:07:43;24.10;99.90
23987;DHT22;12514;52.140;5.602;2022-08-19T11:10:12;24.10;99.90
23987;DHT22;12514;52.140;5.602;2022-08-19T11:12:39;24.20;99.90
23987;DHT22;12514;52.140;5.602;2022-08-19T11:15:09;24.20;99.90
23987;DHT22;12514;52.140;5.602;2022-08-19T11:17:39;24.20;99.90
23987;DHT22;12514;52.140;5.602;2022-08-19T11:20:13;24.40;99.90
23987;DHT22;12514;52.140;5.602;2022-08-19T11:22:40;24.40;99.90
23987;DHT22;12514;52.140;5.602;2022-08-19T11:25:07;24.50;99.90
23987;DHT22;12514;52.140;5.602;2022-08-19T11:27:32;24.60;99.90
23987;DHT22;12514;52.140;5.602;2022-08-19T11:29:59;24.70;99.90
23987;DHT22;12514;52.140;5.602;2022-08-19T11:32:24;24.90;99.90
23987;DHT22;12514;52.140;5.602;2022-08-19T11:34:50;24.90;99.90
23987;DHT22;12514;52.140;5.602;2022-08-19T11:37:16;25.00;99.90
23987;DHT22;12514;52.140;5.602;2022-08-19T11:39:41;24.90;99.90
23987;DHT22;12514;52.140;5.602;2022-08-19T11:42:07;24.90;99.90
23987;DHT22;12514;52.140;5.602;2022-08-19T11:44:51;24.90;99.90
23987;DHT22;12514;52.140;5.602;2022-08-19T11:47:18;25.00;99.90
23987;DHT22;12514;52.140;5.602;2022-08-19T11:49:43;25.10;99.90
23987;DHT22;12514;52.140;5.602;2022-08-19T11:52:10;25.20;99.90
23987;DHT22;12514;52.140;5.602;2022-08-19T11:57:58;25.50;99.90
23987;DHT22;12514;52.140;5.602;2022-08-19T12:00:24;25.30;99.90
23987;DHT22;12514;52.140;5.602;2022-08-19T12:02:49;25.40;99.90
23987;DHT22;12514;52.140;5.602;2022-08-19T12:05:15;25.50;99.90
23987;DHT22;12514;52.140;5.602;2022-08-19T12:07:41;25.50;99.90
23987;DHT22;12514;52.140;5.602;2022-08-19T12:10:08;25.40;99.90
23987;DHT22;12514;52.140;5.602;2022-08-19T12:12:34;25.30;99.90
23987;DHT22;12514;52.140;5.602;2022-08-19T12:14:59;25.40;99.90
23987;DHT22;12514;52.140;5.602;2022-08-19T12:17:26;25.20;99.90
23987;DHT22;12514;52.140;5.602;2022-08-19T12:19:52;25.30;99.90
23987;DHT22;12514;52.140;5.602;2022-08-19T12:22:18;25.50;99.90
23987;DHT22;12514;52.140;5.602;2022-08-19T12:28:05;25.40;99.90
23987;DHT22;12514;52.140;5.602;2022-08-19T12:30:31;25.60;99.90
23987;DHT22;12514;52.140;5.602;2022-08-19T12:32:56;25.60;99.90
23987;DHT22;12514;52.140;5.602;2022-08-19T12:35:22;25.60;99.90
23987;DHT22;12514;52.140;5.602;2022-08-19T12:37:48;25.80;99.90
23987;DHT22;12514;52.140;5.602;2022-08-19T12:40:15;25.90;99.90
23987;DHT22;12514;52.140;5.602;2022-08-19T12:42:42;25.90;99.90
23987;DHT22;12514;52.140;5.602;2022-08-19T12:45:12;26.00;99.90
23987;DHT22;12514;52.140;5.602;2022-08-19T12:47:38;26.00;99.90
23987;DHT22;12514;52.140;5.602;2022-08-19T12:50:05;25.90;99.90
23987;DHT22;12514;52.140;5.602;2022-08-19T12:52:35;25.80;99.90
23987;DHT22;12514;52.140;5.602;2022-08-19T12:55:04;25.70;99.90
23987;DHT22;12514;52.140;5.602;2022-08-19T12:57:30;25.70;99.90
23987;DHT22;12514;52.140;5.602;2022-08-19T13:00:06;25.60;99.90
23987;DHT22;12514;52.140;5.602;2022-08-19T13:02:35;25.40;99.90
23987;DHT22;12514;52.140;5.602;2022-08-19T13:05:01;25.40;99.90
23987;DHT22;12514;52.140;5.602;2022-08-19T13:07:27;25.30;99.90
23987;DHT22;12514;52.140;5.602;2022-08-19T13:13:15;24.70;99.90
23987;DHT22;12514;52.140;5.602;2022-08-19T13:15:41;24.50;99.90
23987;DHT22;12514;52.140;5.602;2022-08-19T13:18:09;24.10;99.90
23987;DHT22;12514;52.140;5.602;2022-08-19T13:20:37;23.80;99.90
23987;DHT22;12514;52.140;5.602;2022-08-19T13:23:03;23.50;99.90
23987;DHT22;12514;52.140;5.602;2022-08-19T13:25:29;23.40;99.90
23987;DHT22;12514;52.140;5.602;2022-08-19T13:27:55;23.20;99.90
23987;DHT22;12514;52.140;5.602;2022-08-19T13:30:21;23.30;99.90
23987;DHT22;12514;52.140;5.602;2022-08-19T13:33:05;23.50;99.90
23987;DHT22;12514;52.140;5.602;2022-08-19T13:35:40;23.60;99.90
23987;DHT22;12514;52.140;5.602;2022-08-19T13:38:07;23.70;99.90
23987;DHT22;12514;52.140;5.602;2022-08-19T13:40:33;23.20;99.90
23987;DHT22;12514;52.140;5.602;2022-08-19T13:42:59;22.90;99.90
23987;DHT22;12514;52.140;5.602;2022-08-19T13:45:27;22.90;99.90
23987;DHT22;12514;52.140;5.602;2022-08-19T13:47:55;22.90;99.90
23987;DHT22;12514;52.140;5.602;2022-08-19T13:50:24;22.90;99.90
23987;DHT22;12514;52.140;5.602;2022-08-19T13:52:51;23.10;99.90
23987;DHT22;12514;52.140;5.602;2022-08-19T13:55:17;23.30;99.90
23987;DHT22;12514;52.140;5.602;2022-08-19T13:57:43;23.10;99.90
23987;DHT22;12514;52.140;5.602;2022-08-19T14:00:13;22.70;99.90
23987;DHT22;12514;52.140;5.602;2022-08-19T14:02:39;22.50;99.90
23987;DHT22;12514;52.140;5.602;2022-08-19T14:05:07;22.40;99.90
23987;DHT22;12514;52.140;5.602;2022-08-19T14:07:33;22.20;99.90
23987;DHT22;12514;52.140;5.602;2022-08-19T14:13:22;22.60;99.90
23987;DHT22;12514;52.140;5.602;2022-08-19T14:15:49;22.70;99.90
23987;DHT22;12514;52.140;5.602;2022-08-19T14:18:23;22.90;99.90
23987;DHT22;12514;52.140;5.602;2022-08-19T14:20:50;23.10;99.90
23987;DHT22;12514;52.140;5.602;2022-08-19T14:23:16;23.20;99.90
23987;DHT22;12514;52.140;5.602;2022-08-19T14:25:42;23.30;99.90
23987;DHT22;12514;52.140;5.602;2022-08-19T14:28:08;23.20;99.90
23987;DHT22;12514;52.140;5.602;2022-08-19T14:30:39;23.00;99.90
23987;DHT22;12514;52.140;5.602;2022-08-19T14:33:06;23.00;99.90
23987;DHT22;12514;52.140;5.602;2022-08-19T14:35:33;22.90;99.90
23987;DHT22;12514;52.140;5.602;2022-08-19T14:38:01;22.70;99.90
23987;DHT22;12514;52.140;5.602;2022-08-19T14:43:51;22.60;99.90
23987;DHT22;12514;52.140;5.602;2022-08-19T14:46:21;22.70;99.90
23987;DHT22;12514;52.140;5.602;2022-08-19T14:48:48;22.80;99.90
23987;DHT22;12514;52.140;5.602;2022-08-19T14:51:13;22.90;99.90
23987;DHT22;12514;52.140;5.602;2022-08-19T14:53:40;22.90;99.90
23987;DHT22;12514;52.140;5.602;2022-08-19T14:56:14;22.90;99.90
23987;DHT22;12514;52.140;5.602;2022-08-19T14:58:41;23.00;99.90
23987;DHT22;12514;52.140;5.602;2022-08-19T15:01:07;23.10;99.90
23987;DHT22;12514;52.140;5.602;2022-08-19T15:03:34;22.90;99.90
23987;DHT22;12514;52.140;5.602;2022-08-19T15:06:11;22.90;99.90
23987;DHT22;12514;52.140;5.602;2022-08-19T15:08:38;23.00;99.90
23987;DHT22;12514;52.140;5.602;2022-08-19T15:11:12;23.20;99.90
23987;DHT22;12514;52.140;5.602;2022-08-19T15:13:40;23.20;99.90
23987;DHT22;12514;52.140;5.602;2022-08-19T15:16:06;23.30;99.90
23987;DHT22;12514;52.140;5.602;2022-08-19T15:18:32;23.20;99.90
23987;DHT22;12514;52.140;5.602;2022-08-19T15:20:58;23.20;99.90
23987;DHT22;12514;52.140;5.602;2022-08-19T15:23:24;23.40;99.90
23987;DHT22;12514;52.140;5.602;2022-08-19T15:29:12;23.50;99.90
23987;DHT22;12514;52.140;5.602;2022-08-19T15:31:40;23.70;99.90
23987;DHT22;12514;52.140;5.602;2022-08-19T15:34:05;23.70;99.90
23987;DHT22;12514;52.140;5.602;2022-08-19T15:36:31;23.70;99.90
23987;DHT22;12514;52.140;5.602;2022-08-19T15:38:57;23.80;99.90
23987;DHT22;12514;52.140;5.602;2022-08-19T15:41:26;23.60;99.90
23987;DHT22;12514;52.140;5.602;2022-08-19T15:44:07;23.70;99.90
23987;DHT22;12514;52.140;5.602;2022-08-19T15:46:36;23.70;99.90
23987;DHT22;12514;52.140;5.602;2022-08-19T15:49:03;23.80;99.90
23987;DHT22;12514;52.140;5.602;2022-08-19T15:51:30;23.80;99.90
23987;DHT22;12514;52.140;5.602;2022-08-19T15:53:57;23.90;99.90
23987;DHT22;12514;52.140;5.602;2022-08-19T16:00:30;24.00;99.90
23987;DHT22;12514;52.140;5.602;2022-08-19T16:03:14;24.10;99.90
23987;DHT22;12514;52.140;5.602;2022-08-19T16:05:59;24.20;99.90
23987;DHT22;12514;52.140;5.602;2022-08-19T16:08:44;24.30;99.90
23987;DHT22;12514;52.140;5.602;2022-08-19T16:14:33;24.10;99.90
23987;DHT22;12514;52.140;5.602;2022-08-19T16:16:59;24.20;99.90
23987;DHT22;12514;52.140;5.602;2022-08-19T16:19:26;24.30;99.90
23987;DHT22;12514;52.140;5.602;2022-08-19T16:21:54;24.40;99.90
23987;DHT22;12514;52.140;5.602;2022-08-19T16:24:23;24.40;99.90
23987;DHT22;12514;52.140;5.602;2022-08-19T16:26:49;24.40;99.90
23987;DHT22;12514;52.140;5.602;2022-08-19T16:29:16;24.40;99.90
23987;DHT22;12514;52.140;5.602;2022-08-19T16:31:43;24.40;99.90
23987;DHT22;12514;52.140;5.602;2022-08-19T16:34:11;24.40;99.90
23987;DHT22;12514;52.140;5.602;2022-08-19T16:36:37;24.40;99.90
23987;DHT22;12514;52.140;5.602;2022-08-19T16:39:07;24.40;99.90
23987;DHT22;12514;52.140;5.602;2022-08-19T16:44:55;24.30;99.90
23987;DHT22;12514;52.140;5.602;2022-08-19T16:47:21;24.20;99.90